TAF KRNO
AMD KRNO 081744Z 0818/0918 VRB03KT 1SM BR SCT002 BKN050 TEMPO 0818/0820 1/2SM FG OVC002 FM082000 26012G22KT P6SM SCT070 BKN140 FM090700 31009KT 5SM RA BKN025 OVC040 FM091600 VRB05KT 1/2SM RASN OVC018
METAR KRNO
WC KRNO
WS KRNO
WV KRNO